Time;durP1;ratioP1;P1;durP2;ratioP2;P2;SDS_P1;SDS_P2;PMS_P1;PMS_P2;Temp;Humidity;BMP_temperature;BMP_pressure;BME280_temperature;BME280_humidity;BME280_pressure;Samples;Min_cycle;Max_cycle;Signal;HPM_P1;HPM_P2
2022/10/09 00:01:10;;;;;;;4.75;1.85;;;8.40;99.90;;;;;;4969592;28;20065;-38
2022/10/09 00:03:37;;;;;;;6.53;1.60;;;8.30;99.90;;;;;;4970896;28;20058;-38
2022/10/09 00:06:05;;;;;;;3.63;1.83;;;8.30;99.90;;;;;;4969435;28;20038;-38
2022/10/09 00:08:30;;;;;;;5.97;2.20;;;8.30;99.90;;;;;;4970038;28;20370;-38
2022/10/09 00:10:56;;;;;;;7.15;2.30;;;8.30;99.90;;;;;;4970249;28;20034;-38
2022/10/09 00:13:22;;;;;;;6.20;2.40;;;8.30;99.90;;;;;;4969880;28;20158;-39
2022/10/09 00:15:47;;;;;;;4.97;2.20;;;8.20;99.90;;;;;;4969616;28;20035;-36
2022/10/09 00:18:16;;;;;;;9.00;2.50;;;8.20;99.90;;;;;;4971059;28;20042;-36
2022/10/09 00:20:44;;;;;;;4.18;1.83;;;8.20;99.90;;;;;;4969719;28;20492;-39
2022/10/09 00:23:13;;;;;;;5.70;2.42;;;8.20;99.90;;;;;;4969609;28;20046;-37
2022/10/09 00:25:48;;;;;;;4.40;1.80;;;8.20;99.90;;;;;;4967631;28;20252;-37
2022/10/09 00:28:13;;;;;;;8.32;2.47;;;8.20;99.90;;;;;;4972977;28;20050;-37
2022/10/09 00:30:39;;;;;;;7.43;2.53;;;8.20;99.90;;;;;;4967896;28;20542;-37
2022/10/09 00:33:05;;;;;;;4.80;2.03;;;8.10;99.90;;;;;;4972486;28;20369;-37
2022/10/09 00:35:30;;;;;;;6.57;2.13;;;8.10;99.90;;;;;;4964605;28;20173;-37
2022/10/09 00:37:56;;;;;;;6.03;2.10;;;8.10;99.90;;;;;;4962588;28;20039;-37
2022/10/09 00:40:23;;;;;;;4.63;2.10;;;8.10;99.90;;;;;;4965640;28;20065;-38
2022/10/09 00:42:55;;;;;;;6.65;2.28;;;8.10;99.90;;;;;;4970570;28;20076;-37
2022/10/09 00:45:21;;;;;;;4.50;1.85;;;8.10;99.90;;;;;;4967283;28;20042;-37
2022/10/09 00:47:50;;;;;;;5.63;2.03;;;8.10;99.90;;;;;;4964530;28;20045;-38
2022/10/09 00:50:22;;;;;;;3.67;1.80;;;8.10;99.90;;;;;;4953527;28;20047;-38
2022/10/09 00:52:52;;;;;;;6.20;2.13;;;8.10;99.90;;;;;;4966035;28;20049;-38
2022/10/09 00:55:19;;;;;;;6.30;2.38;;;8.10;99.90;;;;;;4971626;28;20085;-37
2022/10/09 00:57:45;;;;;;;4.75;1.83;;;8.10;99.90;;;;;;4955594;28;20516;-37
2022/10/09 01:00:13;;;;;;;5.10;1.80;;;8.10;99.90;;;;;;4969713;28;21600;-37
2022/10/09 01:02:39;;;;;;;4.15;1.48;;;8.00;99.90;;;;;;4968667;28;20540;-37
2022/10/09 01:05:07;;;;;;;5.13;1.88;;;8.00;99.90;;;;;;4969992;28;20125;-38
2022/10/09 01:07:39;;;;;;;8.05;1.92;;;8.00;99.90;;;;;;4963805;28;20089;-37
2022/10/09 01:10:29;;;;;;;4.03;1.80;;;8.00;99.90;;;;;;4969169;28;20484;-37
2022/10/09 01:13:11;;;;;;;6.20;2.10;;;7.90;99.90;;;;;;4968269;28;20035;-38
2022/10/09 01:15:54;;;;;;;5.50;2.07;;;7.90;99.90;;;;;;4963458;28;20082;-36
2022/10/09 01:18:37;;;;;;;6.57;2.58;;;7.90;99.90;;;;;;4968004;28;20126;-37
2022/10/09 01:21:18;;;;;;;6.30;2.10;;;7.90;99.90;;;;;;4968134;28;20043;-38
2022/10/09 01:24:19;;;;;;;5.82;1.70;;;7.80;99.90;;;;;;4967131;28;20818;-37
2022/10/09 01:26:56;;;;;;;4.93;2.45;;;7.80;99.90;;;;;;4966932;28;20046;-37
2022/10/09 01:29:25;;;;;;;5.68;2.10;;;7.80;99.90;;;;;;4966172;28;20165;-37
2022/10/09 01:31:51;;;;;;;8.65;2.38;;;7.80;99.90;;;;;;4962533;28;20039;-37
2022/10/09 01:34:18;;;;;;;4.68;2.03;;;7.70;99.90;;;;;;4968913;28;20031;-36
2022/10/09 01:36:45;;;;;;;8.15;2.33;;;7.70;99.90;;;;;;4965901;28;20451;-38
2022/10/09 01:39:17;;;;;;;10.50;2.10;;;7.70;99.90;;;;;;4969869;28;20488;-38
2022/10/09 01:41:44;;;;;;;6.85;1.77;;;7.80;99.90;;;;;;4966258;28;20511;-37
2022/10/09 01:44:19;;;;;;;7.03;2.35;;;7.70;99.90;;;;;;4970104;28;20049;-38
2022/10/09 01:46:46;;;;;;;3.75;1.55;;;7.70;99.90;;;;;;4965796;28;20047;-38
2022/10/09 01:49:26;;;;;;;6.05;2.47;;;7.70;99.90;;;;;;4967873;28;20031;-37
2022/10/09 01:52:17;;;;;;;7.80;1.75;;;7.70;99.90;;;;;;4967345;28;20059;-38
2022/10/09 01:55:00;;;;;;;7.43;1.92;;;7.70;99.90;;;;;;4969995;28;20085;-37
2022/10/09 01:57:49;;;;;;;4.72;1.55;;;7.70;99.90;;;;;;4967127;28;20046;-38
2022/10/09 02:00:15;;;;;;;4.95;1.67;;;7.70;99.90;;;;;;4957398;28;20055;-37
2022/10/09 02:02:42;;;;;;;5.88;1.48;;;7.70;99.90;;;;;;4958687;28;20043;-38
2022/10/09 02:05:16;;;;;;;8.20;1.77;;;7.70;99.90;;;;;;4960036;28;20103;-37
2022/10/09 02:07:42;;;;;;;8.27;1.83;;;7.70;99.90;;;;;;4965111;28;20035;-37
2022/10/09 02:10:09;;;;;;;5.75;2.10;;;7.60;99.90;;;;;;4963929;28;20038;-38
2022/10/09 02:12:39;;;;;;;4.97;1.42;;;7.70;99.90;;;;;;4967615;28;20504;-38
2022/10/09 02:15:06;;;;;;;4.00;1.90;;;7.70;99.90;;;;;;4966489;28;20042;-37
2022/10/09 02:17:35;;;;;;;5.43;1.88;;;7.70;99.90;;;;;;4968914;28;20521;-38
2022/10/09 02:20:11;;;;;;;3.45;1.48;;;7.60;99.90;;;;;;4964118;28;20039;-37
2022/10/09 02:22:37;;;;;;;5.70;2.63;;;7.60;99.90;;;;;;4951596;28;20133;-38
2022/10/09 02:25:05;;;;;;;4.18;1.48;;;7.60;99.90;;;;;;4963470;28;20121;-40
2022/10/09 02:27:32;;;;;;;5.75;1.95;;;7.60;99.90;;;;;;4947322;28;20544;-38
2022/10/09 02:29:59;;;;;;;4.35;1.77;;;7.60;99.90;;;;;;4964217;28;20125;-36
2022/10/09 02:32:25;;;;;;;6.57;2.03;;;7.60;99.90;;;;;;4964183;28;20078;-37
2022/10/09 02:34:51;;;;;;;4.75;1.60;;;7.50;99.90;;;;;;4966599;28;20429;-37
2022/10/09 02:37:17;;;;;;;3.63;1.55;;;7.50;99.90;;;;;;4965094;28;20030;-37
2022/10/09 02:39:43;;;;;;;4.25;1.63;;;7.50;99.90;;;;;;4964380;28;20053;-38
2022/10/09 02:42:09;;;;;;;3.45;1.60;;;7.50;99.90;;;;;;4965157;28;20468;-38
2022/10/09 02:44:34;;;;;;;4.85;1.60;;;7.50;99.90;;;;;;4968711;28;20078;-37
2022/10/09 02:47:00;;;;;;;5.70;1.85;;;7.50;99.90;;;;;;4969576;28;20567;-38
2022/10/09 02:49:26;;;;;;;4.82;1.65;;;7.40;99.90;;;;;;4963958;28;20054;-38
2022/10/09 02:51:52;;;;;;;4.35;1.80;;;7.40;99.90;;;;;;4967506;28;20134;-38
2022/10/09 02:54:17;;;;;;;3.85;1.77;;;7.40;99.90;;;;;;4960408;28;20039;-38
2022/10/09 02:56:43;;;;;;;5.80;2.13;;;7.40;99.90;;;;;;4968387;28;20042;-38
2022/10/09 02:59:09;;;;;;;3.22;1.38;;;7.40;99.90;;;;;;4969126;28;20383;-39
2022/10/09 03:01:35;;;;;;;4.75;1.80;;;7.40;99.90;;;;;;4969878;28;20117;-37
2022/10/09 03:04:01;;;;;;;7.95;1.65;;;7.40;99.90;;;;;;4970530;28;20117;-38
2022/10/09 03:06:27;;;;;;;3.70;1.48;;;7.40;99.90;;;;;;4965923;28;20046;-38
2022/10/09 03:08:54;;;;;;;2.92;1.50;;;7.40;99.90;;;;;;4950175;28;20035;-38
2022/10/09 03:11:22;;;;;;;4.30;1.88;;;7.40;99.90;;;;;;4967156;28;20042;-38
2022/10/09 03:13:48;;;;;;;7.68;1.98;;;7.40;99.90;;;;;;4969693;28;20043;-38
2022/10/09 03:16:19;;;;;;;6.20;1.60;;;7.40;99.90;;;;;;4964989;28;20047;-38
2022/10/09 03:18:46;;;;;;;4.18;1.80;;;7.30;99.90;;;;;;4963364;28;20130;-37
2022/10/09 03:21:14;;;;;;;6.20;1.90;;;7.30;99.90;;;;;;4969323;28;20046;-38
2022/10/09 03:23:40;;;;;;;4.10;1.73;;;7.40;99.90;;;;;;4964607;28;20054;-38
2022/10/09 03:26:09;;;;;;;5.13;1.80;;;7.40;99.90;;;;;;4965001;28;20046;-38
2022/10/09 03:28:36;;;;;;;5.78;2.00;;;7.40;99.90;;;;;;4963465;28;20518;-38
2022/10/09 03:31:03;;;;;;;3.88;1.45;;;7.30;99.90;;;;;;4964245;28;20073;-39
2022/10/09 03:33:28;;;;;;;5.03;2.20;;;7.30;99.90;;;;;;4961468;28;20579;-38
2022/10/09 03:35:54;;;;;;;5.53;1.88;;;7.30;99.90;;;;;;4966295;28;20074;-38
2022/10/09 03:38:20;;;;;;;3.35;2.03;;;7.30;99.90;;;;;;4952125;28;20038;-38
2022/10/09 03:40:45;;;;;;;3.83;1.58;;;7.30;99.90;;;;;;4964881;28;20121;-38
2022/10/09 03:43:11;;;;;;;6.85;1.95;;;7.30;99.90;;;;;;4968979;28;20485;-38
2022/10/09 03:45:41;;;;;;;7.53;1.60;;;7.30;99.90;;;;;;4969376;28;20490;-39
2022/10/09 03:48:08;;;;;;;6.43;1.90;;;7.30;99.90;;;;;;4966612;28;20117;-38
2022/10/09 03:50:35;;;;;;;4.88;1.70;;;7.20;99.90;;;;;;4969925;28;20059;-36
2022/10/09 03:53:02;;;;;;;5.72;2.00;;;7.20;99.90;;;;;;4971130;28;20058;-37
2022/10/09 03:55:27;;;;;;;6.28;2.00;;;7.20;99.90;;;;;;4964278;28;20037;-37
2022/10/09 03:57:53;;;;;;;3.95;1.70;;;7.20;99.90;;;;;;4970037;28;20038;-37
2022/10/09 04:00:19;;;;;;;3.63;1.52;;;7.20;99.90;;;;;;4970001;28;20189;-37
2022/10/09 04:02:44;;;;;;;4.78;1.95;;;7.20;99.90;;;;;;4968906;28;20518;-37
2022/10/09 04:05:10;;;;;;;6.63;1.70;;;7.20;99.90;;;;;;4968841;28;20046;-38
2022/10/09 04:07:36;;;;;;;6.00;1.60;;;7.20;99.90;;;;;;4965984;28;20062;-38
2022/10/09 04:10:02;;;;;;;3.42;1.67;;;7.20;99.90;;;;;;4963187;28;20039;-38
2022/10/09 04:12:28;;;;;;;6.20;2.17;;;7.20;99.90;;;;;;4964458;28;20074;-37
2022/10/09 04:14:53;;;;;;;5.47;1.95;;;7.20;99.90;;;;;;4968319;28;20082;-38
2022/10/09 04:17:19;;;;;;;6.20;2.10;;;7.10;99.90;;;;;;4968436;28;20070;-39
2022/10/09 04:19:45;;;;;;;7.43;2.40;;;7.10;99.90;;;;;;4963712;28;20046;-41
2022/10/09 04:22:10;;;;;;;5.20;2.38;;;7.10;99.90;;;;;;4967455;28;20516;-37
2022/10/09 04:24:36;;;;;;;8.90;3.05;;;7.10;99.90;;;;;;4965197;28;20042;-38
2022/10/09 04:27:02;;;;;;;5.18;2.65;;;7.10;99.90;;;;;;4949415;28;20074;-38
2022/10/09 04:29:27;;;;;;;6.22;2.33;;;7.10;99.90;;;;;;4970372;28;20108;-37
2022/10/09 04:31:53;;;;;;;5.20;2.45;;;7.10;99.90;;;;;;4969147;28;20062;-38
2022/10/09 04:34:19;;;;;;;6.38;2.70;;;7.10;99.90;;;;;;4968920;28;20563;-38
2022/10/09 04:36:44;;;;;;;5.65;2.10;;;7.10;99.90;;;;;;4966706;28;20043;-38
2022/10/09 04:39:10;;;;;;;5.43;3.08;;;7.00;99.90;;;;;;4968805;28;20062;-37
2022/10/09 04:41:36;;;;;;;4.88;2.97;;;7.00;99.90;;;;;;4968303;28;20197;-38
2022/10/09 04:44:01;;;;;;;6.32;2.05;;;7.00;99.90;;;;;;4966453;28;20070;-37
2022/10/09 04:46:27;;;;;;;6.28;3.03;;;7.00;99.90;;;;;;4969467;28;20030;-38
2022/10/09 04:48:53;;;;;;;6.63;2.95;;;7.00;99.90;;;;;;4972380;28;20483;-38
2022/10/09 04:51:18;;;;;;;6.82;2.95;;;7.00;99.90;;;;;;4969709;28;20539;-38
2022/10/09 04:53:45;;;;;;;5.40;2.65;;;6.90;99.90;;;;;;4971601;28;20054;-38
2022/10/09 04:56:17;;;;;;;5.80;2.70;;;6.90;99.90;;;;;;4950496;28;20050;-37
2022/10/09 04:58:44;;;;;;;4.68;2.53;;;6.90;99.90;;;;;;4969316;28;20035;-39
2022/10/09 05:01:19;;;;;;;7.75;2.88;;;6.90;99.90;;;;;;4965563;28;20050;-38
2022/10/09 05:03:45;;;;;;;7.18;3.00;;;6.90;99.90;;;;;;4969110;28;20049;-38
2022/10/09 05:06:13;;;;;;;9.73;2.55;;;6.90;99.90;;;;;;4969675;28;20047;-37
2022/10/09 05:08:39;;;;;;;7.50;2.88;;;6.90;99.90;;;;;;4965751;28;20047;-37
2022/10/09 05:11:16;;;;;;;5.47;2.90;;;6.80;99.90;;;;;;4958705;28;20093;-37
2022/10/09 05:13:46;;;;;;;5.00;2.22;;;6.80;99.90;;;;;;4967880;28;20047;-38
2022/10/09 05:16:17;;;;;;;4.70;1.90;;;6.80;99.90;;;;;;4949331;28;20042;-38
2022/10/09 05:18:48;;;;;;;5.20;2.20;;;6.80;99.90;;;;;;4968888;28;20047;-38
2022/10/09 05:21:15;;;;;;;6.03;2.28;;;6.80;99.90;;;;;;4952469;28;20527;-38
2022/10/09 05:23:41;;;;;;;5.45;2.45;;;6.80;99.90;;;;;;4960294;28;20050;-35
2022/10/09 05:26:10;;;;;;;5.05;2.58;;;6.80;99.90;;;;;;4963709;28;20113;-38
2022/10/09 05:28:36;;;;;;;4.80;2.80;;;6.70;99.90;;;;;;4971572;28;20496;-38
2022/10/09 05:31:03;;;;;;;4.60;2.40;;;6.70;99.90;;;;;;4967459;28;20042;-38
2022/10/09 05:33:29;;;;;;;7.70;3.03;;;6.70;99.90;;;;;;4969816;28;20571;-36
2022/10/09 05:35:58;;;;;;;7.88;2.80;;;6.70;99.90;;;;;;4949193;28;20126;-38
2022/10/09 05:38:25;;;;;;;8.20;3.40;;;6.70;99.90;;;;;;4965775;28;20065;-37
2022/10/09 05:40:52;;;;;;;6.50;2.72;;;6.70;99.90;;;;;;4967701;28;20092;-37
2022/10/09 05:43:18;;;;;;;5.35;2.67;;;6.70;99.90;;;;;;4964550;28;20045;-37
2022/10/09 05:45:43;;;;;;;9.95;3.63;;;6.70;99.90;;;;;;4961802;28;20038;-36
2022/10/09 05:48:09;;;;;;;8.10;3.20;;;6.70;99.90;;;;;;4969749;28;20129;-38
2022/10/09 05:50:35;;;;;;;7.50;2.95;;;6.70;99.90;;;;;;4967014;28;20055;-38
2022/10/09 05:53:01;;;;;;;5.50;3.03;;;6.70;99.90;;;;;;4970214;28;20046;-37
2022/10/09 05:55:27;;;;;;;8.45;3.55;;;6.70;99.90;;;;;;4967581;28;20042;-37
2022/10/09 05:57:53;;;;;;;7.72;3.75;;;6.70;99.90;;;;;;4966788;28;20097;-39
2022/10/09 06:00:18;;;;;;;5.68;2.92;;;6.70;99.90;;;;;;4964895;28;20650;-37
2022/10/09 06:02:44;;;;;;;8.63;3.70;;;6.70;99.90;;;;;;4967960;28;20047;-38
2022/10/09 06:05:10;;;;;;;9.07;3.40;;;6.70;99.90;;;;;;4968347;28;20090;-38
2022/10/09 06:07:36;;;;;;;5.95;2.80;;;6.70;99.90;;;;;;4963234;28;20707;-37
2022/10/09 06:10:04;;;;;;;8.65;3.70;;;6.70;99.90;;;;;;4965780;28;20034;-36
2022/10/09 06:12:29;;;;;;;6.07;3.13;;;6.70;99.90;;;;;;4969872;28;20365;-38
2022/10/09 06:14:55;;;;;;;7.85;3.38;;;6.70;99.90;;;;;;4968120;28;20049;-39
2022/10/09 06:17:21;;;;;;;7.65;3.35;;;6.70;99.90;;;;;;4968257;28;20535;-39
2022/10/09 06:19:46;;;;;;;6.47;3.38;;;6.70;99.90;;;;;;4962234;28;20034;-37
2022/10/09 06:22:12;;;;;;;8.23;3.40;;;6.70;99.90;;;;;;4968402;28;20046;-37
2022/10/09 06:24:38;;;;;;;8.85;3.72;;;6.70;99.90;;;;;;4962770;28;20131;-37
2022/10/09 06:27:03;;;;;;;7.70;2.83;;;6.70;99.90;;;;;;4947228;28;20427;-38
2022/10/09 06:29:29;;;;;;;6.35;3.10;;;6.70;99.90;;;;;;4965763;28;20671;-38
2022/10/09 06:31:55;;;;;;;8.93;3.45;;;6.80;99.90;;;;;;4962692;28;20134;-39
2022/10/09 06:34:22;;;;;;;9.05;3.05;;;6.80;99.90;;;;;;4967423;28;20070;-38
2022/10/09 06:36:47;;;;;;;7.93;3.70;;;6.80;99.90;;;;;;4962347;28;20038;-37
2022/10/09 06:39:13;;;;;;;9.82;3.40;;;6.90;99.90;;;;;;4966125;28;20045;-39
2022/10/09 06:41:39;;;;;;;11.45;3.58;;;6.90;99.90;;;;;;4961112;28;20117;-37
2022/10/09 06:44:07;;;;;;;7.95;2.50;;;6.90;99.90;;;;;;4962019;28;20039;-37
2022/10/09 06:46:39;;;;;;;6.55;3.20;;;6.90;99.90;;;;;;4948887;28;20057;-37
2022/10/09 06:49:06;;;;;;;6.43;3.20;;;6.90;99.90;;;;;;4966384;28;20566;-39
2022/10/09 06:51:33;;;;;;;10.25;3.17;;;7.00;99.90;;;;;;4965896;28;20106;-37
2022/10/09 06:54:02;;;;;;;6.88;2.80;;;7.10;99.90;;;;;;4968574;28;20082;-37
2022/10/09 06:56:30;;;;;;;5.28;2.97;;;7.10;99.90;;;;;;4968531;28;20130;-39
2022/10/09 06:58:59;;;;;;;6.57;3.10;;;7.20;99.90;;;;;;4950115;28;20062;-38
2022/10/09 07:01:29;;;;;;;8.80;3.90;;;7.20;99.90;;;;;;4964615;28;20034;-36
2022/10/09 07:04:00;;;;;;;9.38;3.63;;;7.20;99.90;;;;;;4960661;28;20035;-37
2022/10/09 07:06:28;;;;;;;6.78;3.10;;;7.30;99.90;;;;;;4965551;28;20051;-38
2022/10/09 07:09:00;;;;;;;8.82;3.10;;;7.30;99.90;;;;;;4962975;28;20522;-37
2022/10/09 07:11:34;;;;;;;3.97;2.50;;;7.30;99.90;;;;;;4967441;28;20054;-38
2022/10/09 07:14:02;;;;;;;5.95;3.33;;;7.40;99.90;;;;;;4967500;28;20030;-38
2022/10/09 07:16:30;;;;;;;6.32;2.63;;;7.40;99.90;;;;;;4966274;28;20039;-37
2022/10/09 07:18:56;;;;;;;7.53;2.78;;;7.50;99.90;;;;;;4962221;28;20042;-38
2022/10/09 07:21:25;;;;;;;4.40;2.60;;;7.50;99.90;;;;;;4970428;28;20046;-37
2022/10/09 07:23:52;;;;;;;6.57;3.35;;;7.60;99.90;;;;;;4967192;28;20579;-38
2022/10/09 07:26:25;;;;;;;12.60;3.92;;;7.60;99.90;;;;;;4972765;28;20043;-37
2022/10/09 07:28:51;;;;;;;10.00;3.33;;;7.70;99.90;;;;;;4966895;28;20035;-37
2022/10/09 07:31:17;;;;;;;4.45;2.22;;;7.70;99.90;;;;;;4965765;28;20035;-38
2022/10/09 07:33:47;;;;;;;8.00;3.35;;;7.80;99.90;;;;;;4971288;28;20050;-38
2022/10/09 07:36:12;;;;;;;11.35;3.60;;;7.90;99.90;;;;;;4971472;28;20037;-37
2022/10/09 07:38:38;;;;;;;5.30;3.38;;;7.90;99.90;;;;;;4966484;28;20043;-37
2022/10/09 07:41:07;;;;;;;8.50;3.25;;;8.00;99.90;;;;;;4969677;28;20503;-39
2022/10/09 07:43:38;;;;;;;11.20;3.80;;;8.00;99.90;;;;;;4969994;28;20045;-36
2022/10/09 07:46:05;;;;;;;8.70;3.75;;;8.10;99.90;;;;;;4965159;28;20081;-38
2022/10/09 07:48:33;;;;;;;9.05;3.60;;;8.10;99.90;;;;;;4961816;28;20400;-37
2022/10/09 07:51:16;;;;;;;5.90;2.95;;;8.20;99.90;;;;;;4969767;28;20555;-36
2022/10/09 07:53:43;;;;;;;7.82;2.95;;;8.20;99.90;;;;;;4951509;28;20507;-37
2022/10/09 07:56:20;;;;;;;8.80;3.53;;;8.30;99.90;;;;;;4965133;28;20042;-37
2022/10/09 07:58:53;;;;;;;6.75;3.63;;;8.30;99.90;;;;;;4961414;28;20623;-38
2022/10/09 08:01:21;;;;;;;9.30;3.80;;;8.40;99.90;;;;;;4966521;28;20042;-37
2022/10/09 08:03:47;;;;;;;10.02;4.28;;;8.40;99.90;;;;;;4968005;28;20065;-37
2022/10/09 08:06:13;;;;;;;7.07;3.30;;;8.50;99.90;;;;;;4962381;28;20039;-36
2022/10/09 08:08:38;;;;;;;7.78;3.67;;;8.60;99.90;;;;;;4965276;28;20050;-36
2022/10/09 08:11:09;;;;;;;8.05;3.65;;;8.70;99.90;;;;;;4968201;28;20061;-39
2022/10/09 08:13:35;;;;;;;11.68;4.38;;;8.70;99.90;;;;;;4963452;28;20147;-39
2022/10/09 08:16:01;;;;;;;8.45;3.55;;;;;;;;;;4953624;28;20122;-37
2022/10/09 08:18:27;;;;;;;6.95;3.80;;;8.90;99.90;;;;;;4968624;28;20034;-37
2022/10/09 08:21:13;;;;;;;12.18;4.35;;;9.10;99.90;;;;;;4966750;28;20050;-37
2022/10/09 08:23:39;;;;;;;11.20;3.42;;;9.20;99.90;;;;;;4970712;28;20130;-37
2022/10/09 08:26:13;;;;;;;11.30;4.43;;;9.30;99.90;;;;;;4966920;28;20034;-36
2022/10/09 08:28:38;;;;;;;10.63;4.32;;;9.40;99.90;;;;;;4951646;28;20105;-37
2022/10/09 08:31:15;;;;;;;13.75;4.45;;;9.50;99.90;;;;;;4964662;28;20043;-37
2022/10/09 08:33:42;;;;;;;7.82;3.70;;;9.60;99.90;;;;;;4969518;28;20078;-35
2022/10/09 08:36:10;;;;;;;10.27;4.10;;;9.80;99.90;;;;;;4959263;28;20046;-37
2022/10/09 08:38:37;;;;;;;8.57;4.15;;;9.80;99.90;;;;;;4963298;28;20041;-39
2022/10/09 08:41:08;;;;;;;9.90;4.50;;;10.00;99.90;;;;;;4966703;28;20042;-34
2022/10/09 08:43:38;;;;;;;9.68;3.80;;;10.10;99.90;;;;;;4968662;28;20042;-34
2022/10/09 08:46:13;;;;;;;8.18;3.90;;;10.20;99.90;;;;;;4964853;28;20045;-34
2022/10/09 08:48:43;;;;;;;7.07;2.90;;;10.40;99.90;;;;;;4970970;28;20046;-35
2022/10/09 08:51:19;;;;;;;9.85;3.55;;;10.50;99.90;;;;;;4972006;28;20070;-35
2022/10/09 08:54:18;;;;;;;8.10;3.67;;;10.70;99.90;;;;;;4964537;28;20547;-34
2022/10/09 08:56:44;;;;;;;8.27;3.15;;;10.80;99.90;;;;;;4967867;28;20377;-34
2022/10/09 08:59:12;;;;;;;10.10;3.58;;;10.90;99.90;;;;;;4968239;28;20045;-34
2022/10/09 09:01:51;;;;;;;8.05;3.38;;;11.00;99.90;;;;;;4969237;28;20507;-34
2022/10/09 09:05:02;;;;;;;7.22;2.60;;;11.10;99.90;;;;;;4964432;28;20191;-35
2022/10/09 09:07:45;;;;;;;7.78;2.90;;;11.30;99.90;;;;;;4962142;28;20535;-35
2022/10/09 09:10:21;;;;;;;5.75;2.40;;;11.30;99.90;;;;;;4962970;28;20041;-35
2022/10/09 09:13:18;;;;;;;7.32;2.70;;;11.40;99.90;;;;;;4968497;28;20093;-36
2022/10/09 09:15:50;;;;;;;8.20;2.42;;;11.50;99.90;;;;;;4966646;28;20038;-35
2022/10/09 09:18:42;;;;;;;12.00;2.40;;;11.60;99.90;;;;;;4966029;28;20046;-35
2022/10/09 09:21:23;;;;;;;7.53;2.05;;;11.70;99.90;;;;;;4964887;28;20054;-35
2022/10/09 09:23:48;;;;;;;7.40;2.60;;;11.80;99.90;;;;;;4960160;28;20051;-36
2022/10/09 09:26:19;;;;;;;7.82;2.28;;;11.90;99.90;;;;;;4967217;28;20057;-35
2022/10/09 09:28:51;;;;;;;8.10;2.88;;;12.00;99.90;;;;;;4967495;28;20035;-36
2022/10/09 09:31:27;;;;;;;7.45;3.28;;;12.10;99.90;;;;;;4947772;28;20039;-37
2022/10/09 09:34:24;;;;;;;10.65;2.38;;;12.20;99.90;;;;;;4969901;28;20047;-37
2022/10/09 09:36:59;;;;;;;7.93;2.60;;;12.30;99.90;;;;;;4963425;28;20062;-37
2022/10/09 09:39:27;;;;;;;4.93;2.13;;;12.30;99.90;;;;;;4961395;28;20043;-37
2022/10/09 09:42:09;;;;;;;7.82;2.40;;;12.40;99.90;;;;;;4958913;28;20053;-37
2022/10/09 09:44:45;;;;;;;8.52;2.60;;;12.50;99.90;;;;;;4964539;28;20093;-37
2022/10/09 09:47:22;;;;;;;6.32;2.30;;;12.60;99.90;;;;;;4967524;28;20114;-36
2022/10/09 09:49:53;;;;;;;9.82;2.90;;;;;;;;;;4969368;28;20035;-37
2022/10/09 09:52:18;;;;;;;9.75;2.33;;;12.80;99.90;;;;;;4968316;28;20043;-37
2022/10/09 09:54:47;;;;;;;6.53;2.90;;;12.90;99.90;;;;;;4964825;28;20061;-36
2022/10/09 09:57:33;;;;;;;9.38;3.20;;;13.00;99.90;;;;;;4946437;28;20045;-37
2022/10/09 10:00:15;;;;;;;6.13;2.63;;;13.00;99.90;;;;;;4954998;28;20121;-36
2022/10/09 10:02:41;;;;;;;7.53;3.05;;;13.10;99.90;;;;;;4961598;28;20042;-38
2022/10/09 10:05:25;;;;;;;9.93;3.20;;;13.10;99.90;;;;;;4964025;28;20049;-36
2022/10/09 10:07:51;;;;;;;8.27;2.75;;;13.20;99.90;;;;;;4968279;28;20097;-35
2022/10/09 10:10:28;;;;;;;9.85;3.20;;;13.30;99.90;;;;;;4965699;28;20041;-36
2022/10/09 10:12:56;;;;;;;8.07;2.85;;;13.30;99.90;;;;;;4958722;28;20057;-36
2022/10/09 10:15:33;;;;;;;11.30;2.90;;;13.40;99.90;;;;;;4957323;28;20043;-35
2022/10/09 10:18:02;;;;;;;12.73;3.20;;;13.50;99.90;;;;;;4968477;28;20048;-35
2022/10/09 10:20:31;;;;;;;10.13;3.92;;;13.50;99.90;;;;;;4964813;28;20053;-35
2022/10/09 10:22:58;;;;;;;8.40;2.72;;;13.60;99.90;;;;;;4969037;28;20047;-35
2022/10/09 10:25:30;;;;;;;7.38;2.72;;;13.60;99.90;;;;;;4969067;28;20076;-35
2022/10/09 10:28:19;;;;;;;11.40;3.38;;;13.70;99.90;;;;;;4962929;28;20093;-35
2022/10/09 10:30:46;;;;;;;8.02;3.55;;;13.90;99.60;;;;;;4967079;28;20051;-35
2022/10/09 10:33:19;;;;;;;10.07;2.88;;;13.90;99.60;;;;;;4968944;28;20041;-34
2022/10/09 10:35:50;;;;;;;7.03;2.33;;;13.90;98.60;;;;;;4963886;28;20034;-35
2022/10/09 10:38:29;;;;;;;6.95;2.38;;;14.00;98.40;;;;;;4962268;28;20125;-35
2022/10/09 10:41:14;;;;;;;9.00;2.35;;;14.00;97.00;;;;;;4964598;28;20039;-35
2022/10/09 10:43:42;;;;;;;5.47;1.63;;;14.00;96.80;;;;;;4965921;28;20563;-35
2022/10/09 10:46:35;;;;;;;6.50;1.83;;;14.10;96.60;;;;;;4967024;28;20094;-35
2022/10/09 10:49:01;;;;;;;9.02;2.17;;;14.20;95.10;;;;;;4966044;28;20125;-35
2022/10/09 10:51:50;;;;;;;6.75;2.28;;;14.20;95.50;;;;;;4966615;28;20109;-35
2022/10/09 10:54:38;;;;;;;7.15;2.17;;;14.30;94.90;;;;;;4970977;28;20046;-35
2022/10/09 10:57:25;;;;;;;4.63;1.60;;;14.40;94.60;;;;;;4968852;28;20528;-35
2022/10/09 11:00:08;;;;;;;8.05;2.10;;;14.50;94.40;;;;;;4971474;28;20428;-35
2022/10/09 11:02:45;;;;;;;9.20;2.38;;;14.50;93.30;;;;;;4972260;28;20129;-37
2022/10/09 11:05:26;;;;;;;5.70;1.58;;;14.50;93.10;;;;;;4972697;28;20050;-35
2022/10/09 11:08:07;;;;;;;7.55;2.13;;;14.60;93.30;;;;;;4971590;28;20081;-35
2022/10/09 11:10:55;;;;;;;9.60;2.77;;;14.70;93.20;;;;;;4971112;28;20543;-35
2022/10/09 11:13:31;;;;;;;4.75;1.20;;;14.80;93.00;;;;;;4968063;28;20035;-35
2022/10/09 11:16:35;;;;;;;4.85;1.00;;;14.90;92.70;;;;;;4972302;28;20039;-35
2022/10/09 11:19:03;;;;;;;8.52;1.33;;;15.00;91.70;;;;;;4893326;29;20509;-35
2022/10/09 11:22:04;;;;;;;7.32;1.60;;;15.10;91.00;;;;;;4895982;29;20036;-36
2022/10/09 11:25:03;;;;;;;5.82;1.55;;;15.20;90.30;;;;;;4931392;28;20070;-35
2022/10/09 11:27:38;;;;;;;3.70;1.30;;;15.30;85.20;;;;;;4968155;28;20039;-35
2022/10/09 11:30:14;;;;;;;4.53;0.88;;;15.30;85.70;;;;;;4971749;28;20047;-35
2022/10/09 11:32:48;;;;;;;4.05;1.15;;;15.40;84.10;;;;;;4966048;28;20134;-35
2022/10/09 11:35:19;;;;;;;4.00;1.20;;;15.40;84.60;;;;;;4969258;28;20039;-34
2022/10/09 11:37:57;;;;;;;5.00;1.30;;;15.50;82.80;;;;;;4971589;28;20045;-34
2022/10/09 11:40:30;;;;;;;5.97;1.30;;;15.50;82.50;;;;;;4971638;28;20113;-34
2022/10/09 11:43:08;;;;;;;8.88;1.40;;;15.70;82.00;;;;;;4969193;28;20522;-35
2022/10/09 11:45:49;;;;;;;8.88;1.52;;;15.80;80.20;;;;;;4968991;28;20496;-34
2022/10/09 11:48:34;;;;;;;7.90;1.60;;;16.00;79.60;;;;;;4973244;28;20472;-35
2022/10/09 11:51:35;;;;;;;5.57;1.38;;;16.30;78.70;;;;;;4971025;28;20054;-35
2022/10/09 11:54:02;;;;;;;6.50;2.17;;;16.70;75.50;;;;;;4963418;28;20101;-36
2022/10/09 11:56:30;;;;;;;4.50;1.27;;;17.10;75.10;;;;;;4968269;28;20034;-35
2022/10/09 11:59:05;;;;;;;4.75;1.30;;;17.50;73.40;;;;;;4972409;28;20054;-35
2022/10/09 12:01:35;;;;;;;3.05;1.08;;;17.80;70.40;;;;;;4966932;28;20499;-36
2022/10/09 12:04:07;;;;;;;5.50;1.38;;;18.20;70.00;;;;;;4958512;28;20046;-35
2022/10/09 12:06:55;;;;;;;5.65;1.45;;;18.40;68.10;;;;;;4966470;28;20124;-37
2022/10/09 12:09:42;;;;;;;7.15;1.92;;;18.50;64.80;;;;;;4969809;28;20031;-39
2022/10/09 12:12:20;;;;;;;8.23;1.50;;;18.60;62.60;;;;;;4949070;28;20811;-36
2022/10/09 12:14:49;;;;;;;7.45;1.65;;;18.70;61.90;;;;;;4966288;28;20565;-37
2022/10/09 12:17:20;;;;;;;4.82;1.27;;;18.70;63.00;;;;;;4969616;28;20109;-37
2022/10/09 12:20:13;;;;;;;4.85;1.27;;;18.70;61.80;;;;;;4963970;28;20047;-36
2022/10/09 12:22:42;;;;;;;6.90;1.50;;;18.70;62.20;;;;;;4967032;28;20051;-37
2022/10/09 12:25:26;;;;;;;5.18;1.35;;;19.00;62.80;;;;;;4966124;28;20046;-37
2022/10/09 12:27:54;;;;;;;4.45;1.48;;;19.30;60.20;;;;;;4962885;28;20148;-37
2022/10/09 12:30:23;;;;;;;6.97;1.42;;;19.50;59.80;;;;;;4966597;28;20674;-39
2022/10/09 12:33:28;;;;;;;3.90;1.30;;;19.70;59.00;;;;;;5395878;23;20101;-83
2022/10/09 12:36:13;;;;;;;6.65;1.75;;;19.90;57.20;;;;;;4962668;28;20051;-82
2022/10/09 12:38:39;;;;;;;5.10;1.63;;;20.40;58.10;;;;;;4962678;28;20057;-83
2022/10/09 12:41:33;;;;;;;5.57;1.60;;;20.70;56.60;;;;;;5309399;23;20097;-37
2022/10/09 12:43:58;;;;;;;5.70;1.73;;;20.90;53.40;;;;;;4975748;28;20042;-37
2022/10/09 12:46:36;;;;;;;6.32;1.70;;;21.10;54.40;;;;;;4987936;28;20494;-37
2022/10/09 12:49:04;;;;;;;6.75;1.90;;;21.50;51.40;;;;;;4987467;28;20042;-37
2022/10/09 12:51:31;;;;;;;8.10;1.85;;;21.80;52.60;;;;;;4987542;28;20084;-37
2022/10/09 12:53:57;;;;;;;8.07;1.80;;;22.30;51.60;;;;;;4990759;28;20616;-36
2022/10/09 12:56:30;;;;;;;4.50;1.73;;;22.70;50.50;;;;;;4988421;28;20042;-37
2022/10/09 12:58:58;;;;;;;6.60;1.70;;;22.90;48.30;;;;;;4988946;28;20046;-37
2022/10/09 13:01:24;;;;;;;4.57;1.40;;;23.10;48.60;;;;;;4987174;28;20467;-37
2022/10/09 13:03:59;;;;;;;5.38;1.88;;;23.20;47.80;;;;;;4994046;28;20491;-37
2022/10/09 13:06:32;;;;;;;7.93;1.63;;;23.30;45.90;;;;;;4987126;28;20041;-40
2022/10/09 13:09:03;;;;;;;7.78;1.65;;;23.40;46.50;;;;;;4991429;28;20061;-37
2022/10/09 13:11:39;;;;;;;5.78;1.80;;;23.80;45.90;;;;;;4988396;28;20581;-38
2022/10/09 13:14:21;;;;;;;7.40;1.50;;;24.00;44.90;;;;;;4986418;28;20045;-37